Kivalina, AK

4:17 AM AKST on December 07, 2016 (GMT -0900)
Kivalina | | Change Station

Elev 10 ft 67.73 °N, 164.55 °W | Updated 24 minutes ago

Clear
Clear
-16 °F
Feels Like -32 °F
N
7
Wind Variable Wind from ENE

Today
High -- | Low -- °F
--% Chance of Precip.
Yesterday
High -- | Low -- °F
Precip. -- in
Pressure 30.82 in
Visibility 10.0 miles
Clouds Clear
Windchill -32 °F
Dew Point -23 °F
Humidity 71%
Rainfall 0.00 in
Snow Depth Not available.
1:05 PM 2:34 PM
First Quarter, 52% visible
METAR PAVL 071253Z AUTO 07006KT 10SM CLR M27/M31 A3082 RMK AO2 SLP435 T12671306 TSNO $
Pressure 30.82 in
Visibility 10.0 miles
Clouds Clear
Windchill -32 °F
Dew Point -23 °F
Humidity 71%
Rainfall 0.00 in
Snow Depth Not available.
1:05 PM 2:34 PM
First Quarter, 52% visible
METAR PAVL 071253Z AUTO 07006KT 10SM CLR M27/M31 A3082 RMK AO2 SLP435 T12671306 TSNO $

10-Day Weather Forecast

Almanac

Astronomy

Dec. 07, 2016 Rise Set
Actual Time
Civil Twilight
Nautical Twilight
Astronomical Twilight
Moon
Length of Visible Light
Length of Day
Tomorrow will be .
, % of the Moon is Illuminated

Today's Extremes

State Highs State Lows

Community

WunderPhotos

Upload Photos

1,956,112 photos uploaded!

WunderBlog® & News

Nearby

Air Quality

  Air Quality AQ Index Pollutant
Not available.

Snow Depth

Station Depth Elevation

Earthquake Activity

City Distance Mag. Time & Date
Minimum magnitude displayed is 2.5.

Coastal Water Temperatures

Place Temperature

Stations

Nearby Weather Stations

Station Location Temp. Windchill Dew Point Humidity Wind Precip. Elev Updated Type
                   

Watches & Warnings

There are currently no watches in effect.